Airfield :
LOGIN :

Register | Disclaimer

   EN    FR    IT 

 










Legend :    VFR   Marginal VFR   IFR   Intensive IFR   Very Intensive IFR
Visi :
Ceiling :
>= 8 km
>= 3000ft
5 to 8 km
1000 to 3000 ft
1500m to 5 km
500 to 1000 ft
800 to 1500m
200 to 500 ft
< 800m
< 200 ft
Symbols :   Thunderstorms  Fog  Heavy snow  Heavy precipitations  Wind > 20 kt
SIGMETs :     Misc.  Thunderstorms  Icing  Turbulence  Mountain Waves  Volcanic Ashes






- Airport Elevation : 26 ft
- IATA code : GLA


EGPF - Glasgow

CURRENT METAR :
  • 120450Z AUTO 18007KT 140V200 6000 -RA BKN019 BKN023 OVC028 03/02 Q0989

EXPIRED METARs :
  • 120420Z AUTO 19012KT 6000 -RA SCT021 BKN025 03/02 Q0989
  • 120350Z AUTO 19010KT 9999 BKN020/// //////TCU 04/01 Q0990
  • 120320Z AUTO 18012KT 9999 -RA BKN013 OVC022 04/02 Q0990
  • 120250Z AUTO 18010KT 9999 BKN017/// //////CB 04/02 Q0991
  • 120220Z AUTO 21010KT 9999 SCT042/// //////CB 04/02 Q0991

TAF AMD TAF EGPF
Valid from the 12 at 03:00 until the 13 at 00:00 UTC


120305Z 1203/1224 20010KT 9999 SCT030
TEMPO 1203/1208 23015G25KT 7000 SHRA BKN012
BECMG 1208/1212 12008KT
BECMG 1211/1214 BKN012
TEMPO 1215/1224 4000 RADZ BKN005
ATIS : +44 141 887 7449



MET'MAP, your aeronautical weather chart ! - Copyright ORBIFLY December 2007 - Disclaimer

ORBIFLY MET'MAP TEAM :

Programming & Development : Alexandra Zaïnal
Concept & original design : Baudouin d'Aumeries
Assistance for programming : Marc-Olivier Méhu
Technical & hardware support : Manuel Goepfert

Contact : metmap@orbifly.com




SOURCES & CREDITS :

   NOAA